sensor_id;sensor_type;location;lat;lon;timestamp;pressure;altitude;pressure_sealevel;temperature;humidity
52949;BME280;38812;50.942;3.644;2023-03-22T00:00:27;100917.91;;;8.29;100.00
52949;BME280;38812;50.942;3.644;2023-03-22T00:02:54;100910.06;;;8.30;100.00
52949;BME280;38812;50.942;3.644;2023-03-22T00:05:20;100897.00;;;8.25;100.00
52949;BME280;38812;50.942;3.644;2023-03-22T00:07:46;100890.00;;;8.27;100.00
52949;BME280;38812;50.942;3.644;2023-03-22T00:10:15;100895.22;;;8.35;100.00
52949;BME280;38812;50.942;3.644;2023-03-22T00:12:41;100897.59;;;8.55;100.00
52949;BME280;38812;50.942;3.644;2023-03-22T00:15:07;100881.88;;;8.56;100.00
52949;BME280;38812;50.942;3.644;2023-03-22T00:17:32;100890.44;;;8.66;100.00
52949;BME280;38812;50.942;3.644;2023-03-22T00:19:57;100885.06;;;8.80;100.00
52949;BME280;38812;50.942;3.644;2023-03-22T00:22:23;100866.72;;;8.80;100.00
52949;BME280;38812;50.942;3.644;2023-03-22T00:24:49;100875.38;;;8.86;100.00
52949;BME280;38812;50.942;3.644;2023-03-22T00:27:14;100881.38;;;8.93;100.00
52949;BME280;38812;50.942;3.644;2023-03-22T00:29:40;100878.69;;;8.99;100.00
52949;BME280;38812;50.942;3.644;2023-03-22T00:32:06;100854.91;;;9.11;100.00
52949;BME280;38812;50.942;3.644;2023-03-22T00:34:32;100854.69;;;9.26;100.00
52949;BME280;38812;50.942;3.644;2023-03-22T00:36:58;100844.03;;;9.36;100.00
52949;BME280;38812;50.942;3.644;2023-03-22T00:39:23;100842.13;;;9.47;100.00
52949;BME280;38812;50.942;3.644;2023-03-22T00:41:49;100832.47;;;9.50;100.00
52949;BME280;38812;50.942;3.644;2023-03-22T00:44:15;100826.16;;;9.59;100.00
52949;BME280;38812;50.942;3.644;2023-03-22T00:46:40;100835.63;;;9.69;100.00
52949;BME280;38812;50.942;3.644;2023-03-22T00:49:06;100829.63;;;9.61;100.00
52949;BME280;38812;50.942;3.644;2023-03-22T00:51:31;100823.56;;;9.57;100.00
52949;BME280;38812;50.942;3.644;2023-03-22T00:53:57;100824.44;;;9.58;100.00
52949;BME280;38812;50.942;3.644;2023-03-22T00:56:22;100816.53;;;9.61;100.00
52949;BME280;38812;50.942;3.644;2023-03-22T00:58:49;100829.53;;;9.67;100.00
52949;BME280;38812;50.942;3.644;2023-03-22T01:01:16;100819.88;;;9.69;100.00
52949;BME280;38812;50.942;3.644;2023-03-22T01:03:42;100815.56;;;9.65;100.00
52949;BME280;38812;50.942;3.644;2023-03-22T01:06:08;100815.56;;;9.65;100.00
52949;BME280;38812;50.942;3.644;2023-03-22T01:08:34;100800.84;;;9.58;100.00
52949;BME280;38812;50.942;3.644;2023-03-22T01:11:03;100815.53;;;9.68;100.00
52949;BME280;38812;50.942;3.644;2023-03-22T01:13:28;100805.03;;;9.68;100.00
52949;BME280;38812;50.942;3.644;2023-03-22T01:15:54;100801.47;;;9.72;100.00
52949;BME280;38812;50.942;3.644;2023-03-22T01:18:19;100798.91;;;9.69;100.00
52949;BME280;38812;50.942;3.644;2023-03-22T01:20:45;100788.41;;;9.69;100.00
52949;BME280;38812;50.942;3.644;2023-03-22T01:23:10;100801.47;;;9.72;100.00
52949;BME280;38812;50.942;3.644;2023-03-22T01:25:35;100797.88;;;9.76;100.00
52949;BME280;38812;50.942;3.644;2023-03-22T01:28:01;100792.75;;;9.70;100.00
52949;BME280;38812;50.942;3.644;2023-03-22T01:30:27;100798.75;;;9.77;100.00
52949;BME280;38812;50.942;3.644;2023-03-22T01:32:53;100785.66;;;9.75;100.00
52949;BME280;38812;50.942;3.644;2023-03-22T01:35:18;100794.34;;;9.77;100.00
52949;BME280;38812;50.942;3.644;2023-03-22T01:37:43;100790.91;;;9.75;100.00
52949;BME280;38812;50.942;3.644;2023-03-22T01:40:11;100791.88;;;9.71;100.00
52949;BME280;38812;50.942;3.644;2023-03-22T01:42:37;100790.13;;;9.70;100.00
52949;BME280;38812;50.942;3.644;2023-03-22T01:47:54;100789.13;;;9.76;100.00
52949;BME280;38812;50.942;3.644;2023-03-22T01:50:20;100784.84;;;9.73;100.00
52949;BME280;38812;50.942;3.644;2023-03-22T01:52:48;100782.22;;;9.73;100.00
52949;BME280;38812;50.942;3.644;2023-03-22T01:55:15;100776.97;;;9.73;100.00
52949;BME280;38812;50.942;3.644;2023-03-22T01:57:43;100774.22;;;9.78;100.00
52949;BME280;38812;50.942;3.644;2023-03-22T02:00:10;100771.78;;;9.70;100.00
52949;BME280;38812;50.942;3.644;2023-03-22T02:02:43;100758.75;;;9.64;100.00
52949;BME280;38812;50.942;3.644;2023-03-22T02:05:09;100761.28;;;9.70;100.00
52949;BME280;38812;50.942;3.644;2023-03-22T02:07:37;100752.53;;;9.71;100.00
52949;BME280;38812;50.942;3.644;2023-03-22T02:10:10;100757.78;;;9.71;100.00
52949;BME280;38812;50.942;3.644;2023-03-22T02:15:24;100741.13;;;9.72;100.00
52949;BME280;38812;50.942;3.644;2023-03-22T02:31:56;100734.25;;;9.67;100.00
52949;BME280;38812;50.942;3.644;2023-03-22T02:39:56;100728.22;;;9.60;100.00
52949;BME280;38812;50.942;3.644;2023-03-22T02:42:54;100726.56;;;9.56;100.00
52949;BME280;38812;50.942;3.644;2023-03-22T02:45:50;100731.84;;;9.53;100.00
52949;BME280;38812;50.942;3.644;2023-03-22T02:48:30;100725.94;;;9.43;100.00
52949;BME280;38812;50.942;3.644;2023-03-22T02:51:04;100734.75;;;9.38;100.00
52949;BME280;38812;50.942;3.644;2023-03-22T02:53:40;100727.88;;;9.32;100.00
52949;BME280;38812;50.942;3.644;2023-03-22T02:56:21;100720.22;;;9.21;100.00
52949;BME280;38812;50.942;3.644;2023-03-22T02:58:51;100717.59;;;9.20;100.00
52949;BME280;38812;50.942;3.644;2023-03-22T03:01:59;100717.59;;;9.20;100.00
52949;BME280;38812;50.942;3.644;2023-03-22T03:04:29;100713.28;;;9.17;100.00
52949;BME280;38812;50.942;3.644;2023-03-22T03:07:00;100703.63;;;9.19;100.00
52949;BME280;38812;50.942;3.644;2023-03-22T03:09:27;100721.13;;;9.19;100.00
52949;BME280;38812;50.942;3.644;2023-03-22T03:11:53;100704.66;;;9.11;100.00
52949;BME280;38812;50.942;3.644;2023-03-22T03:14:27;100709.16;;;9.04;100.00
52949;BME280;38812;50.942;3.644;2023-03-22T03:17:33;100710.00;;;9.06;100.00
52949;BME280;38812;50.942;3.644;2023-03-22T03:20:16;100708.13;;;9.11;100.00
52949;BME280;38812;50.942;3.644;2023-03-22T03:23:27;100707.19;;;9.17;100.00
52949;BME280;38812;50.942;3.644;2023-03-22T03:26:05;100699.47;;;9.09;100.00
52949;BME280;38812;50.942;3.644;2023-03-22T03:33:44;100700.00;;;9.28;100.00
52949;BME280;38812;50.942;3.644;2023-03-22T03:36:15;100702.47;;;9.36;100.00
52949;BME280;38812;50.942;3.644;2023-03-22T03:38:45;100696.31;;;9.37;100.00
52949;BME280;38812;50.942;3.644;2023-03-22T03:41:17;100703.38;;;9.33;100.00
52949;BME280;38812;50.942;3.644;2023-03-22T03:43:44;100706.13;;;9.28;100.00
52949;BME280;38812;50.942;3.644;2023-03-22T03:46:11;100704.50;;;9.20;100.00
52949;BME280;38812;50.942;3.644;2023-03-22T03:48:38;100706.31;;;9.16;100.00
52949;BME280;38812;50.942;3.644;2023-03-22T03:51:05;100706.34;;;9.15;100.00
52949;BME280;38812;50.942;3.644;2023-03-22T03:53:31;100711.59;;;9.13;100.00
52949;BME280;38812;50.942;3.644;2023-03-22T03:55:56;100707.31;;;9.09;100.00
52949;BME280;38812;50.942;3.644;2023-03-22T03:58:22;100701.16;;;9.10;100.00
52949;BME280;38812;50.942;3.644;2023-03-22T04:00:48;100697.66;;;9.11;100.00
52949;BME280;38812;50.942;3.644;2023-03-22T04:03:14;100687.06;;;9.17;100.00
52949;BME280;38812;50.942;3.644;2023-03-22T04:05:40;100694.00;;;9.21;100.00
52949;BME280;38812;50.942;3.644;2023-03-22T04:08:06;100695.69;;;9.24;100.00
52949;BME280;38812;50.942;3.644;2023-03-22T04:10:31;100686.91;;;9.26;100.00
52949;BME280;38812;50.942;3.644;2023-03-22T04:12:57;100690.28;;;9.32;100.00
52949;BME280;38812;50.942;3.644;2023-03-22T04:15:22;100701.63;;;9.34;100.00
52949;BME280;38812;50.942;3.644;2023-03-22T04:17:49;100684.28;;;9.28;100.00
52949;BME280;38812;50.942;3.644;2023-03-22T04:20:15;100683.56;;;9.18;100.00
52949;BME280;38812;50.942;3.644;2023-03-22T04:22:41;100678.41;;;9.12;100.00
52949;BME280;38812;50.942;3.644;2023-03-22T04:25:09;100687.16;;;9.11;100.00
52949;BME280;38812;50.942;3.644;2023-03-22T04:27:39;100690.75;;;9.07;100.00
52949;BME280;38812;50.942;3.644;2023-03-22T04:30:07;100699.50;;;9.06;100.00
52949;BME280;38812;50.942;3.644;2023-03-22T04:32:35;100697.63;;;9.13;100.00
52949;BME280;38812;50.942;3.644;2023-03-22T04:35:01;100691.53;;;9.12;100.00
52949;BME280;38812;50.942;3.644;2023-03-22T04:37:26;100688.88;;;9.14;100.00
52949;BME280;38812;50.942;3.644;2023-03-22T04:39:52;100686.22;;;9.17;100.00
52949;BME280;38812;50.942;3.644;2023-03-22T04:42:18;100699.25;;;9.21;100.00
52949;BME280;38812;50.942;3.644;2023-03-22T04:44:44;100680.16;;;9.13;100.00
52949;BME280;38812;50.942;3.644;2023-03-22T04:47:10;100690.47;;;9.22;100.00
52949;BME280;38812;50.942;3.644;2023-03-22T04:49:36;100688.69;;;9.24;100.00
52949;BME280;38812;50.942;3.644;2023-03-22T04:52:01;100672.97;;;9.24;100.00
52949;BME280;38812;50.942;3.644;2023-03-22T04:54:27;100665.25;;;9.17;100.00
52949;BME280;38812;50.942;3.644;2023-03-22T04:56:52;100670.50;;;9.15;100.00
52949;BME280;38812;50.942;3.644;2023-03-22T04:59:18;100673.03;;;9.21;100.00
52949;BME280;38812;50.942;3.644;2023-03-22T05:01:46;100674.81;;;9.19;100.00
52949;BME280;38812;50.942;3.644;2023-03-22T05:04:12;100676.63;;;9.14;100.00
52949;BME280;38812;50.942;3.644;2023-03-22T05:06:37;100676.63;;;9.14;100.00
52949;BME280;38812;50.942;3.644;2023-03-22T05:09:03;100674.84;;;9.16;100.00
52949;BME280;38812;50.942;3.644;2023-03-22T05:11:28;100676.66;;;9.13;100.00
52949;BME280;38812;50.942;3.644;2023-03-22T05:13:54;100678.41;;;9.12;100.00
52949;BME280;38812;50.942;3.644;2023-03-22T05:16:20;100670.56;;;9.12;100.00
52949;BME280;38812;50.942;3.644;2023-03-22T05:18:45;100669.66;;;9.13;100.00
52949;BME280;38812;50.942;3.644;2023-03-22T05:21:13;100664.53;;;9.09;100.00
52949;BME280;38812;50.942;3.644;2023-03-22T05:23:43;100664.56;;;9.07;100.00
52949;BME280;38812;50.942;3.644;2023-03-22T05:26:09;100661.19;;;8.99;100.00
52949;BME280;38812;50.942;3.644;2023-03-22T05:28:36;100658.63;;;8.96;100.00
52949;BME280;38812;50.942;3.644;2023-03-22T05:31:02;100660.38;;;8.96;100.00
52949;BME280;38812;50.942;3.644;2023-03-22T05:33:28;100656.03;;;8.94;100.00
52949;BME280;38812;50.942;3.644;2023-03-22T05:35:54;100656.09;;;8.90;100.00
52949;BME280;38812;50.942;3.644;2023-03-22T05:38:20;100651.81;;;8.87;100.00
52949;BME280;38812;50.942;3.644;2023-03-22T05:40:47;100658.66;;;8.94;100.00
52949;BME280;38812;50.942;3.644;2023-03-22T05:43:14;100653.34;;;8.98;100.00
52949;BME280;38812;50.942;3.644;2023-03-22T05:45:39;100649.94;;;8.94;100.00
52949;BME280;38812;50.942;3.644;2023-03-22T05:48:05;100651.69;;;8.92;100.00
52949;BME280;38812;50.942;3.644;2023-03-22T05:50:31;100666.38;;;9.02;100.00
52949;BME280;38812;50.942;3.644;2023-03-22T05:52:56;100651.63;;;8.97;100.00
52949;BME280;38812;50.942;3.644;2023-03-22T05:55:22;100661.13;;;9.04;100.00
52949;BME280;38812;50.942;3.644;2023-03-22T05:57:47;100657.69;;;9.00;100.00
52949;BME280;38812;50.942;3.644;2023-03-22T06:00:16;100654.22;;;8.98;100.00
52949;BME280;38812;50.942;3.644;2023-03-22T06:02:44;100647.22;;;8.99;100.00
52949;BME280;38812;50.942;3.644;2023-03-22T06:05:11;100650.66;;;9.02;100.00
52949;BME280;38812;50.942;3.644;2023-03-22T06:07:37;100650.63;;;9.05;100.00
52949;BME280;38812;50.942;3.644;2023-03-22T06:10:04;100645.38;;;9.05;100.00
52949;BME280;38812;50.942;3.644;2023-03-22T06:12:31;100647.84;;;9.13;100.00
52949;BME280;38812;50.942;3.644;2023-03-22T06:14:56;100644.47;;;9.06;100.00
52949;BME280;38812;50.942;3.644;2023-03-22T06:17:22;100658.31;;;9.13;100.00
52949;BME280;38812;50.942;3.644;2023-03-22T06:19:48;100652.16;;;9.15;100.00
52949;BME280;38812;50.942;3.644;2023-03-22T06:22:14;100653.88;;;9.16;100.00
52949;BME280;38812;50.942;3.644;2023-03-22T06:24:40;100652.94;;;9.20;100.00
52949;BME280;38812;50.942;3.644;2023-03-22T06:27:06;100637.25;;;9.19;100.00
52949;BME280;38812;50.942;3.644;2023-03-22T06:29:32;100657.03;;;9.35;100.00
52949;BME280;38812;50.942;3.644;2023-03-22T06:31:58;100661.16;;;9.48;100.00
52949;BME280;38812;50.942;3.644;2023-03-22T06:34:23;100634.03;;;9.51;100.00
52949;BME280;38812;50.942;3.644;2023-03-22T06:36:48;100649.56;;;9.60;100.00
52949;BME280;38812;50.942;3.644;2023-03-22T06:39:14;100653.72;;;9.70;100.00
52949;BME280;38812;50.942;3.644;2023-03-22T06:41:39;100651.06;;;9.73;100.00
52949;BME280;38812;50.942;3.644;2023-03-22T06:44:05;100657.16;;;9.74;100.00
52949;BME280;38812;50.942;3.644;2023-03-22T06:46:30;100661.44;;;9.76;100.00
52949;BME280;38812;50.942;3.644;2023-03-22T06:48:55;100649.22;;;9.75;100.00
52949;BME280;38812;50.942;3.644;2023-03-22T06:51:21;100660.50;;;9.80;100.00
52949;BME280;38812;50.942;3.644;2023-03-22T06:53:46;100672.66;;;9.84;100.00
52949;BME280;38812;50.942;3.644;2023-03-22T06:56:12;100661.28;;;9.85;100.00
52949;BME280;38812;50.942;3.644;2023-03-22T06:58:37;100676.03;;;9.91;100.00
52949;BME280;38812;50.942;3.644;2023-03-22T07:01:03;100664.63;;;9.93;100.00
52949;BME280;38812;50.942;3.644;2023-03-22T07:03:28;100668.19;;;9.89;100.00
52949;BME280;38812;50.942;3.644;2023-03-22T07:06:01;100677.75;;;9.92;100.00
52949;BME280;38812;50.942;3.644;2023-03-22T07:08:27;100654.97;;;9.94;100.00
52949;BME280;38812;50.942;3.644;2023-03-22T07:10:52;100647.06;;;9.95;100.00
52949;BME280;38812;50.942;3.644;2023-03-22T07:13:18;100662.66;;;10.02;100.00
52949;BME280;38812;50.942;3.644;2023-03-22T07:15:43;100671.31;;;10.07;100.00
52949;BME280;38812;50.942;3.644;2023-03-22T07:18:08;100671.34;;;10.05;100.00
52949;BME280;38812;50.942;3.644;2023-03-22T07:20:34;100665.16;;;10.08;100.00
52949;BME280;38812;50.942;3.644;2023-03-22T07:23:06;100657.28;;;10.08;100.00
52949;BME280;38812;50.942;3.644;2023-03-22T07:25:32;100665.94;;;10.13;100.00
52949;BME280;38812;50.942;3.644;2023-03-22T07:27:58;100666.97;;;10.06;100.00
52949;BME280;38812;50.942;3.644;2023-03-22T07:30:24;100666.19;;;10.01;100.00
52949;BME280;38812;50.942;3.644;2023-03-22T07:32:49;100681.81;;;10.07;100.00
52949;BME280;38812;50.942;3.644;2023-03-22T07:35:15;100679.25;;;10.04;100.00
52949;BME280;38812;50.942;3.644;2023-03-22T07:37:41;100674.09;;;9.99;100.00
52949;BME280;38812;50.942;3.644;2023-03-22T07:40:07;100673.31;;;9.95;100.00
52949;BME280;38812;50.942;3.644;2023-03-22T07:42:33;100688.97;;;9.98;100.00
52949;BME280;38812;50.942;3.644;2023-03-22T07:44:59;100681.13;;;9.97;100.00
52949;BME280;38812;50.942;3.644;2023-03-22T07:47:24;100678.56;;;9.95;100.00
52949;BME280;38812;50.942;3.644;2023-03-22T07:49:51;100692.38;;;10.04;100.00
52949;BME280;38812;50.942;3.644;2023-03-22T07:52:16;100667.06;;;10.01;100.00
52949;BME280;38812;50.942;3.644;2023-03-22T07:54:42;100675.47;;;10.17;100.00
52949;BME280;38812;50.942;3.644;2023-03-22T07:57:07;100671.13;;;10.16;100.00
52949;BME280;38812;50.942;3.644;2023-03-22T07:59:33;100677.19;;;10.18;100.00
52949;BME280;38812;50.942;3.644;2023-03-22T08:01:58;100681.53;;;10.20;100.00
52949;BME280;38812;50.942;3.644;2023-03-22T08:04:24;100670.13;;;10.21;100.00
52949;BME280;38812;50.942;3.644;2023-03-22T08:06:50;100677.19;;;10.18;100.00
52949;BME280;38812;50.942;3.644;2023-03-22T08:09:16;100669.31;;;10.18;100.00
52949;BME280;38812;50.942;3.644;2023-03-22T08:11:42;100669.31;;;10.19;100.00
52949;BME280;38812;50.942;3.644;2023-03-22T08:14:07;100672.66;;;10.26;100.00
52949;BME280;38812;50.942;3.644;2023-03-22T08:16:33;100672.47;;;10.35;100.00
52949;BME280;38812;50.942;3.644;2023-03-22T08:18:58;100656.72;;;10.35;100.00
52949;BME280;38812;50.942;3.644;2023-03-22T08:21:24;100653.78;;;10.47;100.00
52949;BME280;38812;50.942;3.644;2023-03-22T08:23:50;100655.13;;;10.63;100.00
52949;BME280;38812;50.942;3.644;2023-03-22T08:26:15;100646.22;;;10.71;100.00
52949;BME280;38812;50.942;3.644;2023-03-22T08:28:41;100642.53;;;10.78;100.00
52949;BME280;38812;50.942;3.644;2023-03-22T08:31:12;100642.19;;;10.91;100.00
52949;BME280;38812;50.942;3.644;2023-03-22T08:33:38;100646.50;;;10.94;100.00
52949;BME280;38812;50.942;3.644;2023-03-22T08:36:10;100644.56;;;11.02;100.00
52949;BME280;38812;50.942;3.644;2023-03-22T08:38:36;100640.06;;;11.06;100.00
52949;BME280;38812;50.942;3.644;2023-03-22T08:41:02;100647.06;;;11.05;100.00
52949;BME280;38812;50.942;3.644;2023-03-22T08:43:27;100642.16;;;10.93;100.00
52949;BME280;38812;50.942;3.644;2023-03-22T08:45:53;100641.34;;;10.89;100.00
52949;BME280;38812;50.942;3.644;2023-03-22T08:48:18;100643.84;;;10.95;100.00
52949;BME280;38812;50.942;3.644;2023-03-22T08:50:44;100631.47;;;10.99;100.00
52949;BME280;38812;50.942;3.644;2023-03-22T08:53:09;100633.94;;;11.05;100.00
52949;BME280;38812;50.942;3.644;2023-03-22T08:55:35;100632.75;;;11.17;100.00
52949;BME280;38812;50.942;3.644;2023-03-22T08:58:01;100636.72;;;11.31;100.00
52949;BME280;38812;50.942;3.644;2023-03-22T09:00:28;100643.84;;;11.28;100.00
52949;BME280;38812;50.942;3.644;2023-03-22T09:02:54;100636.72;;;11.31;100.00
52949;BME280;38812;50.942;3.644;2023-03-22T09:05:20;100637.91;;;11.21;100.00
52949;BME280;38812;50.942;3.644;2023-03-22T09:07:45;100644.94;;;11.21;100.00
52949;BME280;38812;50.942;3.644;2023-03-22T09:10:11;100646.69;;;11.20;100.00
52949;BME280;38812;50.942;3.644;2023-03-22T09:12:37;100636.25;;;11.17;100.00
52949;BME280;38812;50.942;3.644;2023-03-22T09:15:02;100643.72;;;11.00;100.00
52949;BME280;38812;50.942;3.644;2023-03-22T09:17:28;100656.00;;;10.99;100.00
52949;BME280;38812;50.942;3.644;2023-03-22T09:19:54;100649.81;;;11.02;100.00
52949;BME280;38812;50.942;3.644;2023-03-22T09:22:19;100646.56;;;10.91;100.00
52949;BME280;38812;50.942;3.644;2023-03-22T09:24:45;100632.88;;;10.80;100.00
52949;BME280;38812;50.942;3.644;2023-03-22T09:27:10;100640.94;;;10.72;100.00
52949;BME280;38812;50.942;3.644;2023-03-22T09:29:35;100658.47;;;10.72;100.00
52949;BME280;38812;50.942;3.644;2023-03-22T09:32:01;100643.09;;;10.55;100.00
52949;BME280;38812;50.942;3.644;2023-03-22T09:34:26;100641.44;;;10.51;100.00
52949;BME280;38812;50.942;3.644;2023-03-22T09:36:52;100647.63;;;10.48;100.00
52949;BME280;38812;50.942;3.644;2023-03-22T09:39:17;100631.94;;;10.45;100.00
52949;BME280;38812;50.942;3.644;2023-03-22T09:41:46;100644.91;;;10.53;100.00
52949;BME280;38812;50.942;3.644;2023-03-22T09:44:33;100645.47;;;10.65;100.00
52949;BME280;38812;50.942;3.644;2023-03-22T09:47:02;100641.03;;;10.68;100.00
52949;BME280;38812;50.942;3.644;2023-03-22T09:49:33;100650.72;;;10.65;100.00
52949;BME280;38812;50.942;3.644;2023-03-22T09:52:00;100636.84;;;10.60;100.00
52949;BME280;38812;50.942;3.644;2023-03-22T09:54:34;100639.63;;;10.54;100.00
52949;BME280;38812;50.942;3.644;2023-03-22T09:57:21;100652.81;;;10.51;100.00
52949;BME280;38812;50.942;3.644;2023-03-22T10:08:32;100646.34;;;10.64;100.00
52949;BME280;38812;50.942;3.644;2023-03-22T10:11:00;100629.81;;;10.61;100.00
52949;BME280;38812;50.942;3.644;2023-03-22T10:13:49;100618.56;;;10.56;100.00
52949;BME280;38812;50.942;3.644;2023-03-22T10:16:26;100629.63;;;10.69;100.00
52949;BME280;38812;50.942;3.644;2023-03-22T10:18:57;100620.84;;;10.70;100.00
52949;BME280;38812;50.942;3.644;2023-03-22T10:21:26;100622.72;;;10.64;100.00
52949;BME280;38812;50.942;3.644;2023-03-22T10:23:55;100634.94;;;10.65;100.00
52949;BME280;38812;50.942;3.644;2023-03-22T10:26:44;100633.09;;;10.71;100.00
52949;BME280;38812;50.942;3.644;2023-03-22T10:31:53;100620.44;;;10.85;100.00
52949;BME280;38812;50.942;3.644;2023-03-22T10:34:28;100615.06;;;10.89;100.00
52949;BME280;38812;50.942;3.644;2023-03-22T10:36:59;100605.28;;;10.96;100.00
52949;BME280;38812;50.942;3.644;2023-03-22T10:39:34;100610.84;;;11.16;100.00
52949;BME280;38812;50.942;3.644;2023-03-22T10:42:06;100600.41;;;11.13;100.00
52949;BME280;38812;50.942;3.644;2023-03-22T10:44:39;100604.31;;;11.31;100.00
52949;BME280;38812;50.942;3.644;2023-03-22T10:47:08;100592.41;;;11.49;100.00
52949;BME280;38812;50.942;3.644;2023-03-22T10:49:42;100581.16;;;11.73;100.00
52949;BME280;38812;50.942;3.644;2023-03-22T10:52:36;100592.72;;;11.69;100.00
52949;BME280;38812;50.942;3.644;2023-03-22T10:55:08;100589.31;;;11.65;100.00
52949;BME280;38812;50.942;3.644;2023-03-22T10:57:34;100590.25;;;11.63;100.00
52949;BME280;38812;50.942;3.644;2023-03-22T10:59:59;100594.41;;;11.70;100.00
52949;BME280;38812;50.942;3.644;2023-03-22T11:02:31;100598.66;;;11.74;100.00
52949;BME280;38812;50.942;3.644;2023-03-22T11:04:59;100595.34;;;11.98;100.00
52949;BME280;38812;50.942;3.644;2023-03-22T11:07:29;100605.47;;;12.12;100.00
52949;BME280;38812;50.942;3.644;2023-03-22T11:15:36;100618.91;;;11.72;100.00
52949;BME280;38812;50.942;3.644;2023-03-22T11:18:14;100597.91;;;11.71;100.00
52949;BME280;38812;50.942;3.644;2023-03-22T11:20:50;100615.41;;;11.72;100.00
52949;BME280;38812;50.942;3.644;2023-03-22T11:23:18;100605.13;;;11.64;100.00
52949;BME280;38812;50.942;3.644;2023-03-22T11:25:48;100605.25;;;11.59;100.00
52949;BME280;38812;50.942;3.644;2023-03-22T11:28:18;100605.09;;;11.65;100.00
52949;BME280;38812;50.942;3.644;2023-03-22T11:31:07;100617.47;;;11.62;100.00
52949;BME280;38812;50.942;3.644;2023-03-22T11:33:33;100612.94;;;11.67;100.00
52949;BME280;38812;50.942;3.644;2023-03-22T11:36:02;100615.53;;;11.68;100.00
52949;BME280;38812;50.942;3.644;2023-03-22T11:38:38;100612.03;;;11.68;100.00
52949;BME280;38812;50.942;3.644;2023-03-22T11:41:07;100614.53;;;11.71;100.00
52949;BME280;38812;50.942;3.644;2023-03-22T11:43:36;100610.34;;;11.65;100.00
52949;BME280;38812;50.942;3.644;2023-03-22T11:46:03;100613.19;;;11.58;100.00
52949;BME280;38812;50.942;3.644;2023-03-22T11:48:31;100614.09;;;11.57;100.00
52949;BME280;38812;50.942;3.644;2023-03-22T11:51:30;100608.66;;;11.63;100.00
52949;BME280;38812;50.942;3.644;2023-03-22T11:54:09;100620.19;;;11.59;100.00
52949;BME280;38812;50.942;3.644;2023-03-22T11:56:46;100616.72;;;11.57;100.00
52949;BME280;38812;50.942;3.644;2023-03-22T11:59:26;100611.41;;;11.58;100.00
52949;BME280;38812;50.942;3.644;2023-03-22T12:04:37;100605.78;;;11.71;100.00
52949;BME280;38812;50.942;3.644;2023-03-22T12:07:12;100604.78;;;11.76;100.00
52949;BME280;38812;50.942;3.644;2023-03-22T12:09:43;100591.78;;;11.70;100.00
52949;BME280;38812;50.942;3.644;2023-03-22T12:12:21;100596.81;;;11.79;100.00
52949;BME280;38812;50.942;3.644;2023-03-22T12:14:56;100582.47;;;11.89;100.00
52949;BME280;38812;50.942;3.644;2023-03-22T12:17:36;100599.22;;;11.87;100.00
52949;BME280;38812;50.942;3.644;2023-03-22T12:22:39;100601.69;;;11.91;100.00
52949;BME280;38812;50.942;3.644;2023-03-22T12:25:28;100593.94;;;11.87;100.00
52949;BME280;38812;50.942;3.644;2023-03-22T12:27:58;100593.63;;;11.97;100.00
52949;BME280;38812;50.942;3.644;2023-03-22T12:30:30;100590.75;;;12.05;100.00
52949;BME280;38812;50.942;3.644;2023-03-22T12:35:30;100582.09;;;12.01;100.00
52949;BME280;38812;50.942;3.644;2023-03-22T12:38:00;100579.44;;;12.01;100.00
52949;BME280;38812;50.942;3.644;2023-03-22T12:40:34;100577.53;;;12.07;100.00
52949;BME280;38812;50.942;3.644;2023-03-22T12:43:20;100580.31;;;12.02;100.00
52949;BME280;38812;50.942;3.644;2023-03-22T12:45:52;100575.09;;;12.00;100.00
52949;BME280;38812;50.942;3.644;2023-03-22T12:48:50;100577.81;;;11.97;100.00
52949;BME280;38812;50.942;3.644;2023-03-22T12:51:16;100573.38;;;11.99;100.00
52949;BME280;38812;50.942;3.644;2023-03-22T12:53:46;100574.81;;;12.10;100.00
52949;BME280;38812;50.942;3.644;2023-03-22T12:56:37;100576.53;;;12.11;100.00
52949;BME280;38812;50.942;3.644;2023-03-22T12:59:05;100571.38;;;12.08;100.00
52949;BME280;38812;50.942;3.644;2023-03-22T13:01:43;100569.72;;;12.04;100.00
52949;BME280;38812;50.942;3.644;2023-03-22T13:06:57;100555.13;;;11.93;100.00
52949;BME280;38812;50.942;3.644;2023-03-22T13:09:38;100573.38;;;11.99;100.00
52949;BME280;38812;50.942;3.644;2023-03-22T13:19:51;100552.94;;;12.08;100.00
52949;BME280;38812;50.942;3.644;2023-03-22T13:23:01;100550.34;;;12.06;100.00
52949;BME280;38812;50.942;3.644;2023-03-22T13:30:25;100543.16;;;12.11;100.00
52949;BME280;38812;50.942;3.644;2023-03-22T13:35:38;100549.84;;;11.93;100.00
52949;BME280;38812;50.942;3.644;2023-03-22T13:38:21;100536.91;;;11.87;100.00
52949;BME280;38812;50.942;3.644;2023-03-22T13:41:04;100549.03;;;11.91;100.00
52949;BME280;38812;50.942;3.644;2023-03-22T13:43:47;100547.13;;;11.96;100.00
52949;BME280;38812;50.942;3.644;2023-03-22T13:53:42;100527.09;;;12.19;100.00
52949;BME280;38812;50.942;3.644;2023-03-22T13:56:30;100531.06;;;12.32;100.00
52949;BME280;38812;50.942;3.644;2023-03-22T13:58:58;100528.63;;;12.26;100.00
52949;BME280;38812;50.942;3.644;2023-03-22T14:01:28;100531.94;;;12.32;100.00
52949;BME280;38812;50.942;3.644;2023-03-22T14:03:57;100532.94;;;12.28;100.00
52949;BME280;38812;50.942;3.644;2023-03-22T14:06:31;100525.38;;;12.18;100.00
52949;BME280;38812;50.942;3.644;2023-03-22T14:09:28;100525.28;;;12.21;100.00
52949;BME280;38812;50.942;3.644;2023-03-22T14:12:06;100514.34;;;12.07;100.00
52949;BME280;38812;50.942;3.644;2023-03-22T14:14:38;100517.97;;;12.02;100.00
52949;BME280;38812;50.942;3.644;2023-03-22T14:17:45;100503.38;;;11.92;100.00